Time;durP1;ratioP1;P1;durP2;ratioP2;P2;SDS_P1;SDS_P2;PMS_P1;PMS_P2;Temp;Humidity;BMP_temperature;BMP_pressure;BME280_temperature;BME280_humidity;BME280_pressure;Samples;Min_cycle;Max_cycle;Signal;HPM_P1;HPM_P2
2022/12/11 00:01:12;;;;;;;;;50.00;43.25;;;;;1.89;72.79;100363.91;5075000;27;46603;-71
2022/12/11 00:03:38;;;;;;;;;51.75;43.25;;;;;1.94;73.28;100376.81;5073786;28;45338;-70
2022/12/11 00:06:08;;;;;;;;;46.75;42.75;;;;;1.97;73.04;100374.19;5076329;27;45448;-70
2022/12/11 00:08:34;;;;;;;;;47.75;39.75;;;;;1.94;72.78;100369.03;5075194;27;45420;-69
2022/12/11 00:11:00;;;;;;;;;41.25;38.00;;;;;1.92;73.61;100358.69;5074559;27;45356;-69
2022/12/11 00:13:25;;;;;;;;;43.25;38.75;;;;;1.88;72.86;100350.06;5074450;27;45227;-70
2022/12/11 00:15:50;;;;;;;;;39.25;38.00;;;;;1.90;72.94;100356.09;5075083;27;45209;-69
2022/12/11 00:18:17;;;;;;;;;39.50;38.25;;;;;1.86;72.66;100350.94;5075281;27;45607;-71
2022/12/11 00:20:43;;;;;;;;;47.25;41.50;;;;;1.75;72.05;100348.44;5074920;27;46459;-68
2022/12/11 00:23:09;;;;;;;;;39.25;37.00;;;;;1.65;72.21;100346.78;5074531;27;46504;-69
2022/12/11 00:25:39;;;;;;;;;37.00;36.25;;;;;1.64;73.30;100343.34;5078424;27;45353;-68
2022/12/11 00:28:04;;;;;;;;;40.25;36.75;;;;;1.57;73.24;100326.06;5080228;27;45653;-70
2022/12/11 00:30:29;;;;;;;;;33.50;32.25;;;;;1.54;73.14;100331.28;5060652;28;46896;-68
2022/12/11 00:32:55;;;;;;;;;35.25;33.75;;;;;1.49;73.00;100331.34;5079457;28;45181;-71
2022/12/11 00:35:20;;;;;;;;;29.75;27.00;;;;;1.41;72.58;100327.94;5077467;27;50299;-68
2022/12/11 00:37:45;;;;;;;;;34.75;34.75;;;;;1.29;73.17;100327.13;5078959;27;45236;-70
2022/12/11 00:40:11;;;;;;;;;34.00;32.00;;;;;1.15;73.49;100300.44;5078230;27;54482;-69
2022/12/11 00:42:36;;;;;;;;;32.00;31.25;;;;;1.33;73.94;100324.53;5079483;27;45314;-70
2022/12/11 00:45:02;;;;;;;;;42.00;37.75;;;;;1.30;73.58;100318.50;5078341;27;45270;-69
2022/12/11 00:47:27;;;;;;;;;29.50;29.00;;;;;1.30;73.63;100312.44;5078997;27;45313;-70
2022/12/11 00:49:53;;;;;;;;;38.25;35.75;;;;;1.38;74.26;100323.63;5078560;27;47819;-70
2022/12/11 00:52:18;;;;;;;;;39.50;34.50;;;;;1.35;73.93;100308.09;5078016;27;45318;-70
2022/12/11 00:54:43;;;;;;;;;44.75;40.00;;;;;1.50;74.20;100316.63;5077758;27;45986;-68
2022/12/11 00:57:09;;;;;;;;;41.50;39.00;;;;;1.47;73.92;100309.75;5078280;27;45382;-69
2022/12/11 00:59:34;;;;;;;;;38.25;35.00;;;;;1.48;73.50;100305.41;5077940;27;45421;-69
2022/12/11 01:01:59;;;;;;;;;28.25;28.25;;;;;1.54;73.22;100324.38;5076786;27;45374;-69
2022/12/11 01:04:25;;;;;;;;;35.25;32.00;;;;;1.50;73.25;100329.59;5078309;27;45318;-69
2022/12/11 01:06:50;;;;;;;;;35.50;32.50;;;;;1.45;73.01;100319.25;5079012;27;45413;-68
2022/12/11 01:11:59;;;;;;;;;38.25;33.75;;;;;1.51;73.25;100313.16;5078183;28;45427;-70
2022/12/11 01:14:26;;;;;;;;;30.50;27.50;;;;;1.53;73.09;100309.69;5078250;27;45269;-67
2022/12/11 01:16:51;;;;;;;;;26.50;25.75;;;;;1.56;73.74;100312.25;5077765;27;45471;-72
2022/12/11 01:19:16;;;;;;;;;33.50;33.00;;;;;1.58;73.51;100310.53;5077401;27;45381;-67
2022/12/11 01:21:42;;;;;;;;;32.25;31.25;;;;;1.59;73.35;100301.88;5065305;28;49229;-67
2022/12/11 01:24:07;;;;;;;;;29.25;29.25;;;;;1.62;72.98;100300.13;5077271;27;45422;-68
2022/12/11 01:26:33;;;;;;;;;35.00;32.25;;;;;1.52;73.30;100284.66;5065515;27;45347;-66
2022/12/11 01:28:58;;;;;;;;;37.50;35.00;;;;;1.56;73.42;100301.91;5056922;28;45347;-67
2022/12/11 01:31:25;;;;;;;;;30.25;30.25;;;;;1.54;72.75;100306.22;5057642;28;45708;-68
2022/12/11 01:33:53;;;;;;;;;29.00;29.00;;;;;1.44;72.73;100307.19;5057970;28;45371;-70
2022/12/11 01:36:20;;;;;;;;;26.50;26.50;;;;;1.39;72.67;100307.19;5057465;28;45474;-68
2022/12/11 01:38:48;;;;;;;;;28.00;25.50;;;;;1.35;73.00;100313.25;5056948;28;47040;-69
2022/12/11 01:41:14;;;;;;;;;30.50;29.25;;;;;1.33;72.97;100307.22;5055812;28;45355;-68
2022/12/11 01:44:14;;;;;;;;;33.50;30.75;;;;;1.37;73.98;100315.88;5077070;28;45489;-65
2022/12/11 01:46:41;;;;;;;;;33.75;32.75;;;;;1.22;73.53;100303.84;5040988;28;45345;-77
2022/12/11 01:49:11;;;;;;;;;30.75;28.25;;;;;1.33;73.64;100320.19;5073850;27;46166;-77
2022/12/11 01:51:51;;;;;;;;;28.50;27.75;;;;;1.30;73.22;100302.06;5087361;27;45344;-74
2022/12/11 01:54:20;;;;;;;;;23.00;23.00;;;;;1.31;73.69;100315.03;5086727;27;45313;-74
2022/12/11 01:56:49;;;;;;;;;20.75;20.75;;;;;1.10;73.05;100286.66;5096242;27;46110;-71
2022/12/11 01:59:19;;;;;;;;;38.75;37.00;;;;;1.24;73.36;100322.84;5057250;28;45690;-74
2022/12/11 02:01:52;;;;;;;;;27.50;26.50;;;;;1.22;72.99;100333.22;5056975;28;45231;-71
2022/12/11 02:04:19;;;;;;;;;26.00;23.25;;;;;1.20;73.63;100334.09;5063866;27;45365;-71
2022/12/11 02:06:47;;;;;;;;;28.75;26.50;;;;;1.18;73.58;100334.13;5098219;27;45262;-71
2022/12/11 02:09:16;;;;;;;;;25.50;24.75;;;;;0.80;73.59;100262.63;5077583;27;46531;-73
2022/12/11 02:11:44;;;;;;;;;23.00;22.50;;;;;1.16;74.03;100315.13;5077500;27;45451;-72
2022/12/11 02:14:25;;;;;;;;;26.50;25.50;;;;;1.12;73.69;100309.09;5077656;27;45231;-72
2022/12/11 02:17:05;;;;;;;;;25.00;25.00;;;;;1.18;73.77;100315.97;5077966;28;45541;-71
2022/12/11 02:19:55;;;;;;;;;26.25;23.25;;;;;1.20;73.28;100314.25;5078753;27;45273;-70
2022/12/11 02:22:54;;;;;;;;;25.50;25.50;;;;;1.19;73.16;100315.09;5085744;27;45308;-72
2022/12/11 02:25:35;;;;;;;;;21.00;21.00;;;;;1.21;73.09;100313.38;5062826;28;45236;-73
2022/12/11 02:28:39;;;;;;;;;21.00;21.00;;;;;1.17;72.99;100306.47;5059922;28;45395;-72
2022/12/11 02:31:11;;;;;;;;;19.50;19.25;;;;;1.18;72.92;100297.84;5076376;28;46214;-72
2022/12/11 02:33:59;;;;;;;;;21.25;18.50;;;;;1.15;73.03;100295.28;5079346;27;45314;-70
2022/12/11 02:36:30;;;;;;;;;18.50;17.25;;;;;1.05;72.88;100299.63;5077256;27;45358;-72
2022/12/11 02:38:57;;;;;;;;;21.00;19.75;;;;;0.93;73.76;100295.38;5063215;28;45382;-74
2022/12/11 02:41:25;;;;;;;;;22.75;22.75;;;;;0.75;73.13;100277.31;5062597;27;46783;-74
2022/12/11 02:43:52;;;;;;;;;25.75;25.75;;;;;0.79;73.37;100281.63;5062357;28;46629;-72
2022/12/11 02:46:20;;;;;;;;;22.75;22.75;;;;;0.70;73.24;100278.22;5075454;28;45371;-73
2022/12/11 02:48:49;;;;;;;;;23.75;23.00;;;;;0.73;73.68;100278.19;5076894;27;45530;-71
2022/12/11 02:51:17;;;;;;;;;23.75;23.75;;;;;0.78;74.02;100280.78;5079842;28;47082;-71
2022/12/11 02:53:44;;;;;;;;;24.25;24.00;;;;;0.80;74.32;100273.00;5075564;27;45335;-72
2022/12/11 02:56:15;;;;;;;;;19.75;19.75;;;;;0.87;73.86;100274.69;5087945;27;45286;-71
2022/12/11 02:58:58;;;;;;;;;17.50;17.50;;;;;0.91;73.84;100268.59;5089331;27;45492;-72
2022/12/11 03:01:24;;;;;;;;;22.00;20.25;;;;;0.93;73.91;100272.06;5077451;28;45706;-72
2022/12/11 03:03:50;;;;;;;;;16.25;16.25;;;;;0.95;73.96;100290.19;5076314;27;45525;-73
2022/12/11 03:06:19;;;;;;;;;19.25;19.25;;;;;0.97;73.57;100286.72;5076557;27;45510;-73
2022/12/11 03:08:44;;;;;;;;;16.75;16.75;;;;;1.00;73.47;100291.88;5059040;28;45711;-75
2022/12/11 03:11:11;;;;;;;;;17.75;17.75;;;;;1.00;73.60;100286.69;5075649;28;46181;-74
2022/12/11 03:13:39;;;;;;;;;20.25;19.75;;;;;0.97;73.67;100276.34;5072390;28;45194;-73
2022/12/11 03:16:14;;;;;;;;;20.00;20.00;;;;;1.02;73.92;100277.19;5056020;28;45336;-72
2022/12/11 03:19:00;;;;;;;;;30.00;27.25;;;;;1.05;73.74;100278.91;5056254;28;45334;-70
2022/12/11 03:21:44;;;;;;;;;24.75;24.75;;;;;1.06;73.56;100267.69;5056401;28;45293;-74
2022/12/11 03:24:20;;;;;;;;;24.75;24.50;;;;;1.07;73.27;100276.31;5066018;27;45555;-71
2022/12/11 03:26:54;;;;;;;;;20.00;20.00;;;;;1.04;73.51;100266.81;5061338;28;45554;-70
2022/12/11 03:29:30;;;;;;;;;22.00;21.50;;;;;1.04;73.62;100269.41;5075486;28;45343;-72
2022/12/11 03:32:09;;;;;;;;;22.50;22.50;;;;;1.02;73.04;100274.59;5070624;28;45402;-72
2022/12/11 03:34:45;;;;;;;;;21.75;21.75;;;;;0.98;72.97;100265.13;5063378;28;45998;-73
2022/12/11 03:37:14;;;;;;;;;16.50;16.50;;;;;0.93;72.81;100274.66;5081207;27;45219;-71
2022/12/11 03:39:47;;;;;;;;;17.50;17.50;;;;;0.92;73.21;100272.91;5060840;28;45543;-71
2022/12/11 03:42:15;;;;;;;;;18.50;17.00;;;;;0.90;73.24;100271.22;5057683;28;47273;-72
2022/12/11 03:44:45;;;;;;;;;17.25;17.25;;;;;0.89;72.83;100270.34;5070353;28;45463;-70
2022/12/11 03:47:16;;;;;;;;;22.75;22.25;;;;;0.90;73.03;100266.03;5058309;28;46348;-71
2022/12/11 03:49:44;;;;;;;;;21.25;21.25;;;;;0.89;73.48;100267.75;5070653;27;45454;-72
2022/12/11 03:52:12;;;;;;;;;22.50;22.50;;;;;0.84;73.40;100253.97;5067313;28;45704;-70
2022/12/11 03:54:40;;;;;;;;;23.25;23.25;;;;;0.86;73.32;100265.19;5071564;27;45235;-72
2022/12/11 03:57:08;;;;;;;;;20.75;20.75;;;;;0.82;73.56;100266.06;5056070;27;45290;-72
2022/12/11 03:59:34;;;;;;;;;16.25;15.75;;;;;0.80;73.70;100263.50;5066735;28;45522;-70
2022/12/11 04:01:59;;;;;;;;;19.75;19.75;;;;;0.81;73.82;100266.94;5077744;27;45474;-71
2022/12/11 04:04:25;;;;;;;;;24.25;23.50;;;;;0.81;74.12;100256.59;5075481;27;45709;-71
2022/12/11 04:06:50;;;;;;;;;19.00;19.00;;;;;0.85;73.76;100258.28;5061623;28;45195;-71
2022/12/11 04:09:16;;;;;;;;;20.75;20.75;;;;;0.79;74.43;100229.84;5077934;27;45255;-69
2022/12/11 04:11:41;;;;;;;;;17.75;17.75;;;;;0.88;74.22;100247.91;5075022;28;46284;-70
2022/12/11 04:16:54;;;;;;;;;29.25;26.50;;;;;0.88;73.50;100250.50;5078992;27;45214;-73
2022/12/11 04:24:52;;;;;;;;;12.00;12.00;;;;;0.79;73.76;100250.56;5069898;28;45454;-73
2022/12/11 04:27:47;;;;;;;;;14.00;14.00;;;;;0.78;73.07;100254.00;5077061;28;45348;-73
2022/12/11 04:30:07;;;;;;;;;17.25;16.50;;;;;0.74;73.32;100255.78;5078458;28;45429;-73
2022/12/11 04:32:32;;;;;;;;;16.75;16.00;;;;;0.70;73.44;100252.31;5071453;27;45456;-74
2022/12/11 04:34:58;;;;;;;;;15.25;15.25;;;;;0.69;73.44;100245.44;5076687;27;45278;-73
2022/12/11 04:37:23;;;;;;;;;19.00;16.25;;;;;0.66;73.36;100240.25;5076765;27;45330;-74
2022/12/11 04:39:49;;;;;;;;;16.00;15.25;;;;;0.68;73.38;100243.69;5063813;28;45472;-73
2022/12/11 04:42:14;;;;;;;;;18.75;18.75;;;;;0.66;73.61;100239.41;5058351;28;45946;-70
2022/12/11 04:44:40;;;;;;;;;15.50;15.50;;;;;0.64;73.42;100231.66;5058625;27;45635;-72
2022/12/11 04:47:06;;;;;;;;;16.50;16.00;;;;;0.58;74.02;100219.59;5062051;27;45473;-71
2022/12/11 04:49:32;;;;;;;;;19.75;19.75;;;;;0.64;73.67;100228.22;5070269;28;45474;-72
2022/12/11 04:51:57;;;;;;;;;15.25;14.50;;;;;0.62;73.33;100233.38;5072543;27;54933;-70
2022/12/11 04:54:22;;;;;;;;;21.25;21.25;;;;;0.61;73.74;100228.22;5067905;28;45495;-71
2022/12/11 04:56:48;;;;;;;;;20.00;19.00;;;;;0.50;73.88;100213.56;5063080;28;45383;-72
2022/12/11 04:59:13;;;;;;;;;13.50;13.50;;;;;0.56;74.05;100226.53;5071535;27;45498;-75
2022/12/11 05:01:39;;;;;;;;;24.75;20.00;;;;;0.58;73.77;100224.78;5073850;27;45619;-73
2022/12/11 05:04:04;;;;;;;;;20.25;20.25;;;;;0.58;73.59;100224.78;5070382;27;45433;-73
2022/12/11 05:06:29;;;;;;;;;16.00;15.75;;;;;0.57;73.70;100224.78;5068623;28;45522;-74
2022/12/11 05:08:55;;;;;;;;;13.50;13.50;;;;;0.55;74.15;100222.22;5075925;28;45531;-71
2022/12/11 05:11:20;;;;;;;;;17.00;14.75;;;;;0.57;73.66;100217.00;5079024;27;45219;-71
2022/12/11 05:13:45;;;;;;;;;18.00;18.00;;;;;0.52;74.06;100211.00;5073881;27;45497;-71
2022/12/11 05:16:14;;;;;;;;;15.75;15.50;;;;;0.43;74.16;100206.72;5072197;27;47376;-71
2022/12/11 05:18:39;;;;;;;;;23.25;19.25;;;;;0.53;74.56;100218.78;5072480;28;45612;-70
2022/12/11 05:21:10;;;;;;;;;21.75;20.50;;;;;0.56;74.50;100217.88;5060294;28;46178;-70
2022/12/11 05:23:37;;;;;;;;;20.00;20.00;;;;;0.56;74.06;100212.69;5072135;28;45407;-72
2022/12/11 05:26:05;;;;;;;;;23.00;18.50;;;;;0.52;74.21;100206.66;5057706;28;45501;-73
2022/12/11 05:28:34;;;;;;;;;19.50;19.50;;;;;0.54;74.05;100219.63;5057457;28;45520;-70
2022/12/11 05:31:10;;;;;;;;;20.50;20.00;;;;;0.56;74.22;100210.13;5072772;27;46370;-72
2022/12/11 05:33:35;;;;;;;;;18.75;18.75;;;;;0.53;74.28;100202.38;5076673;27;45273;-74
2022/12/11 05:36:01;;;;;;;;;11.75;11.75;;;;;0.53;73.93;100213.59;5068239;28;45401;-71
2022/12/11 05:38:27;;;;;;;;;21.50;21.50;;;;;0.52;74.48;100217.03;5067935;28;45332;-73
2022/12/11 05:40:56;;;;;;;;;25.50;24.00;;;;;0.55;74.13;100218.75;5057290;28;46426;-71
2022/12/11 05:43:22;;;;;;;;;21.25;20.00;;;;;0.55;74.00;100217.03;5067249;28;45441;-71
2022/12/11 05:45:47;;;;;;;;;21.25;19.75;;;;;0.56;74.17;100215.28;5057611;28;45352;-72
2022/12/11 05:48:12;;;;;;;;;19.00;19.00;;;;;0.60;74.04;100214.41;5057399;28;45473;-72
2022/12/11 05:50:38;;;;;;;;;19.25;19.25;;;;;0.66;73.90;100216.13;5057126;28;45735;-72
2022/12/11 05:53:04;;;;;;;;;21.75;20.00;;;;;0.63;74.09;100214.38;5075523;27;45463;-73
2022/12/11 05:55:32;;;;;;;;;26.00;26.00;;;;;0.62;73.81;100206.66;5073827;27;46307;-74
2022/12/11 05:57:58;;;;;;;;;24.75;22.00;;;;;0.59;73.79;100199.75;5067608;28;45475;-76
2022/12/11 06:00:23;;;;;;;;;19.75;19.75;;;;;0.47;73.99;100177.34;5076380;27;60826;-74
2022/12/11 06:02:48;;;;;;;;;15.75;15.75;;;;;0.52;73.79;100201.50;5062855;28;45354;-74
2022/12/11 06:05:14;;;;;;;;;15.50;15.50;;;;;0.46;73.90;100201.53;5061654;28;45265;-73
2022/12/11 06:07:39;;;;;;;;;18.00;17.00;;;;;0.45;74.08;100204.97;5077278;27;45499;-73
2022/12/11 06:10:05;;;;;;;;;20.25;19.75;;;;;0.42;74.22;100208.44;5074599;28;45342;-71
2022/12/11 06:12:30;;;;;;;;;16.50;16.50;;;;;0.40;74.17;100204.13;5075008;28;45381;-74
2022/12/11 06:14:56;;;;;;;;;17.00;17.00;;;;;0.39;73.89;100198.13;5060049;27;45440;-71
2022/12/11 06:17:21;;;;;;;;;20.50;20.50;;;;;0.41;74.33;100193.78;5076763;28;45544;-72
2022/12/11 06:19:46;;;;;;;;;17.75;17.75;;;;;0.32;74.04;100188.66;5060875;28;46040;-74
2022/12/11 06:22:12;;;;;;;;;20.75;20.75;;;;;0.36;74.05;100197.25;5075129;28;48859;-72
2022/12/11 06:24:37;;;;;;;;;22.00;21.00;;;;;0.24;74.22;100183.50;5059755;28;45299;-73
2022/12/11 06:27:02;;;;;;;;;27.00;26.00;;;;;0.28;74.32;100187.81;5076804;28;45634;-70
2022/12/11 06:29:28;;;;;;;;;22.00;21.00;;;;;0.27;74.13;100204.19;5074173;27;45550;-70
2022/12/11 06:31:53;;;;;;;;;20.00;20.00;;;;;0.25;73.95;100197.31;5056751;28;45379;-70
2022/12/11 06:34:18;;;;;;;;;22.75;22.75;;;;;0.23;73.95;100193.88;5066086;28;45333;-73
2022/12/11 06:36:44;;;;;;;;;28.50;27.25;;;;;0.24;74.16;100193.84;5073729;28;45546;-72
2022/12/11 06:39:09;;;;;;;;;24.25;23.25;;;;;0.24;74.02;100185.25;5077632;27;46279;-72
2022/12/11 06:41:34;;;;;;;;;22.50;22.50;;;;;0.23;73.89;100183.53;5075679;27;45258;-72
2022/12/11 06:44:00;;;;;;;;;24.00;23.50;;;;;0.28;73.83;100181.78;5072700;28;45254;-72
2022/12/11 06:46:25;;;;;;;;;21.50;21.50;;;;;0.27;73.90;100185.25;5057574;28;45642;-72
2022/12/11 06:48:50;;;;;;;;;28.00;27.00;;;;;0.24;73.28;100188.69;5058877;27;56181;-72
2022/12/11 06:51:18;;;;;;;;;35.00;33.75;;;;;0.19;74.06;100181.81;5070300;28;45389;-70
2022/12/11 06:53:44;;;;;;;;;21.00;19.50;;;;;0.19;74.00;100179.22;5057941;28;45331;-74
2022/12/11 06:56:14;;;;;;;;;30.00;25.00;;;;;0.22;73.90;100186.97;5057495;28;45430;-72
2022/12/11 06:58:40;;;;;;;;;30.75;29.25;;;;;0.23;74.34;100191.28;5063769;28;45500;-72
2022/12/11 07:01:18;;;;;;;;;31.50;30.25;;;;;0.23;74.45;100178.34;5068979;28;45530;-71
2022/12/11 07:03:44;;;;;;;;;27.50;27.50;;;;;0.28;73.97;100176.59;5056262;28;45477;-74
2022/12/11 07:06:10;;;;;;;;;34.00;31.50;;;;;0.30;73.73;100180.03;5075053;28;45181;-74
2022/12/11 07:08:35;;;;;;;;;34.00;33.00;;;;;0.29;73.32;100183.50;5074606;27;45550;-73
2022/12/11 07:11:06;;;;;;;;;40.25;37.25;;;;;0.23;74.00;100174.03;5071802;28;45407;-75
2022/12/11 07:13:32;;;;;;;;;34.00;30.75;;;;;0.28;73.78;100187.81;5067980;27;45679;-71
2022/12/11 07:15:59;;;;;;;;;42.75;38.00;;;;;0.30;73.35;100182.63;5055678;28;45600;-72
2022/12/11 07:18:25;;;;;;;;;38.50;37.50;;;;;0.13;73.64;100160.28;5059605;28;45582;-74
2022/12/11 07:20:50;;;;;;;;;38.75;38.25;;;;;0.19;73.97;100171.47;5090277;27;45448;-74
2022/12/11 07:23:16;;;;;;;;;41.50;39.00;;;;;0.25;73.67;100185.22;5064166;28;45324;-75
2022/12/11 07:25:41;;;;;;;;;41.25;38.50;;;;;0.26;73.69;100196.44;5054084;28;45619;-75
2022/12/11 07:28:06;;;;;;;;;44.50;40.00;;;;;0.29;73.74;100191.25;5071776;28;46241;-74
2022/12/11 07:30:32;;;;;;;;;40.50;38.00;;;;;0.28;73.56;100198.16;5076397;28;48569;-71
2022/12/11 07:32:57;;;;;;;;;39.50;36.50;;;;;0.28;73.77;100198.16;5071516;28;45343;-71
2022/12/11 07:35:22;;;;;;;;;30.75;29.75;;;;;0.27;73.69;100195.59;5055816;28;45275;-70
2022/12/11 07:37:48;;;;;;;;;48.75;41.75;;;;;0.31;73.22;100206.75;5059115;28;50314;-71
2022/12/11 07:40:13;;;;;;;;;40.75;34.75;;;;;0.34;73.76;100196.41;5077454;28;45432;-71
2022/12/11 07:42:38;;;;;;;;;51.00;41.50;;;;;0.36;73.23;100192.97;5074347;28;45374;-72
2022/12/11 07:45:04;;;;;;;;;45.75;42.25;;;;;0.19;73.61;100168.88;5055796;28;45505;-71
2022/12/11 07:47:29;;;;;;;;;50.00;44.75;;;;;0.34;73.35;100205.03;5055921;28;45408;-72
2022/12/11 07:49:55;;;;;;;;;45.50;41.25;;;;;0.32;73.44;100201.59;5072392;28;44841;-71
2022/12/11 07:52:20;;;;;;;;;44.00;41.50;;;;;0.27;73.04;100196.44;5073388;28;45456;-70
2022/12/11 07:54:45;;;;;;;;;43.75;40.50;;;;;0.24;73.19;100193.00;5059337;27;45167;-72
2022/12/11 07:57:11;;;;;;;;;44.50;41.25;;;;;0.22;73.39;100193.00;5068995;28;45504;-72
2022/12/11 07:59:36;;;;;;;;;40.00;38.25;;;;;0.19;73.35;100193.00;5063173;28;45487;-72
2022/12/11 08:02:02;;;;;;;;;42.25;39.25;;;;;0.12;73.22;100191.31;5057407;27;45243;-71
2022/12/11 08:04:27;;;;;;;;;40.25;36.25;;;;;0.06;73.42;100189.63;5055192;28;45514;-72
2022/12/11 08:06:52;;;;;;;;;40.50;38.00;;;;;0.06;73.47;100183.59;5063208;28;46542;-70
2022/12/11 08:09:21;;;;;;;;;45.75;41.50;;;;;0.06;73.78;100188.75;5073443;27;45225;-72
2022/12/11 08:11:50;;;;;;;;;54.50;44.25;;;;;0.15;73.36;100193.88;5065558;27;45475;-73
2022/12/11 08:14:15;;;;;;;;;40.00;38.50;;;;;0.15;73.63;100201.66;5068663;28;46182;-72
2022/12/11 08:16:42;;;;;;;;;47.25;41.50;;;;;0.17;73.97;100196.50;5076864;27;45960;-72
2022/12/11 08:19:09;;;;;;;;;42.50;40.25;;;;;0.22;74.39;100199.91;5065688;28;45365;-71
2022/12/11 08:21:34;;;;;;;;;46.25;41.25;;;;;0.28;73.67;100194.72;5071155;28;45457;-70
2022/12/11 08:24:00;;;;;;;;;44.00;38.75;;;;;0.34;73.35;100202.44;5072961;27;45523;-75
2022/12/11 08:26:28;;;;;;;;;53.25;44.50;;;;;0.33;73.07;100205.03;5075300;28;45548;-71
2022/12/11 08:28:55;;;;;;;;;51.75;42.50;;;;;0.34;73.26;100211.94;5076449;27;45356;-72
2022/12/11 08:31:21;;;;;;;;;48.75;42.50;;;;;0.28;72.94;100200.75;5076516;27;45454;-72
2022/12/11 08:33:47;;;;;;;;;49.75;45.00;;;;;0.31;73.06;100205.06;5073131;27;45275;-71
2022/12/11 08:36:15;;;;;;;;;51.75;44.25;;;;;0.29;72.82;100201.63;5074581;27;45467;-75
2022/12/11 08:38:41;;;;;;;;;46.75;41.00;;;;;0.33;72.63;100194.69;5066407;28;45397;-71
2022/12/11 08:41:08;;;;;;;;;47.75;41.00;;;;;0.35;72.63;100199.00;5055065;28;45406;-74
2022/12/11 08:43:34;;;;;;;;;56.50;44.50;;;;;0.36;73.21;100192.06;5060415;28;45534;-74
2022/12/11 08:45:59;;;;;;;;;51.75;45.00;;;;;0.44;72.87;100203.25;5065682;28;45317;-72
2022/12/11 08:48:24;;;;;;;;;49.50;42.50;;;;;0.48;72.74;100204.13;5059821;28;45429;-75
2022/12/11 08:50:49;;;;;;;;;39.50;36.00;;;;;0.54;72.42;100199.78;5057903;28;45268;-73
2022/12/11 08:53:15;;;;;;;;;41.75;39.00;;;;;0.60;72.26;100208.38;5061584;28;45414;-73
2022/12/11 08:55:41;;;;;;;;;45.25;40.25;;;;;0.60;72.18;100206.63;5077118;27;46244;-71
2022/12/11 08:58:06;;;;;;;;;45.00;39.25;;;;;0.53;71.57;100186.84;5069546;28;45323;-73
2022/12/11 09:00:31;;;;;;;;;46.25;42.00;;;;;0.58;71.76;100198.03;5063787;28;45346;-73
2022/12/11 09:02:57;;;;;;;;;35.25;33.00;;;;;0.65;71.85;100199.72;5077001;27;45583;-75
2022/12/11 09:05:22;;;;;;;;;40.25;38.00;;;;;0.61;71.95;100186.81;5057339;28;46235;-71
2022/12/11 09:07:47;;;;;;;;;44.50;39.00;;;;;0.76;71.85;100201.38;5056585;28;45261;-72
2022/12/11 09:10:13;;;;;;;;;50.50;42.50;;;;;0.82;71.96;100206.50;5077471;27;45327;-73
2022/12/11 09:12:39;;;;;;;;;36.25;36.25;;;;;0.81;71.08;100200.50;5063050;27;45576;-75
2022/12/11 09:15:05;;;;;;;;;34.50;33.50;;;;;0.81;70.94;100197.03;5058131;27;46325;-73
2022/12/11 09:17:31;;;;;;;;;39.75;34.25;;;;;0.76;70.77;100188.44;5065534;27;45483;-71
2022/12/11 09:19:56;;;;;;;;;49.50;40.00;;;;;0.72;70.66;100193.63;5078953;27;45346;-73
2022/12/11 09:22:21;;;;;;;;;47.00;43.00;;;;;0.63;70.92;100187.66;5075804;27;45449;-75
2022/12/11 09:24:47;;;;;;;;;47.00;41.75;;;;;0.68;71.04;100202.28;5057667;28;45382;-70
2022/12/11 09:27:12;;;;;;;;;44.25;39.25;;;;;0.66;71.14;100204.03;5063942;27;45613;-71
2022/12/11 09:29:38;;;;;;;;;43.75;39.50;;;;;0.56;71.01;100185.09;5073371;27;45427;-73
2022/12/11 09:32:04;;;;;;;;;40.75;38.75;;;;;0.69;70.96;100210.91;5076584;27;45278;-70
2022/12/11 09:34:29;;;;;;;;;41.50;30.25;;;;;0.72;71.01;100203.13;5060456;27;46223;-72
2022/12/11 09:36:55;;;;;;;;;50.50;40.50;;;;;0.76;70.85;100207.44;5059080;27;45173;-70
2022/12/11 09:39:21;;;;;;;;;38.25;36.50;;;;;0.78;70.61;100202.22;5071068;27;45275;-72
2022/12/11 09:42:36;;;;;;;;;39.25;36.00;;;;;0.84;70.40;100207.38;5063745;27;45219;-70
2022/12/11 09:45:03;;;;;;;;;49.00;41.00;;;;;0.91;70.26;100205.63;5059084;27;45773;-72
2022/12/11 09:47:41;;;;;;;;;50.00;41.75;;;;;0.87;70.62;100200.44;5078235;27;45397;-72
2022/12/11 09:50:09;;;;;;;;;39.25;38.00;;;;;0.94;70.23;100208.19;5069520;27;45488;-74
2022/12/11 09:52:53;;;;;;;;;38.50;36.75;;;;;0.95;69.96;100204.72;5060008;27;45714;-72
2022/12/11 09:55:23;;;;;;;;;43.75;40.75;;;;;0.99;70.24;100209.00;5073644;27;47168;-66
2022/12/11 09:58:06;;;;;;;;;35.00;34.50;;;;;1.08;69.86;100210.69;5065182;27;45192;-76
2022/12/11 10:01:12;;;;;;;;;42.75;39.50;;;;;1.12;69.73;100218.41;5063740;27;45503;-78
2022/12/11 10:03:51;;;;;;;;;37.75;34.00;;;;;1.18;69.55;100222.72;5042772;28;45513;-76
2022/12/11 10:06:21;;;;;;;;;39.75;37.75;;;;;1.20;69.23;100222.69;5047193;28;45524;-77
2022/12/11 10:08:46;;;;;;;;;40.75;36.50;;;;;1.20;69.13;100230.44;5053305;28;45443;-78
2022/12/11 10:11:26;;;;;;;;;44.50;39.75;;;;;1.19;68.86;100229.59;5082042;27;45387;-74
2022/12/11 10:14:21;;;;;;;;;42.00;39.50;;;;;1.19;69.18;100223.56;5078986;27;45409;-74
2022/12/11 10:17:22;;;;;;;;;42.25;38.75;;;;;1.17;69.44;100220.97;5079021;27;46211;-77
2022/12/11 10:19:48;;;;;;;;;35.00;35.00;;;;;1.14;69.34;100206.31;5067602;27;45385;-76
2022/12/11 10:22:25;;;;;;;;;36.50;33.00;;;;;1.25;69.06;100213.13;5075941;27;45474;-75
2022/12/11 10:25:01;;;;;;;;;43.00;36.75;;;;;1.27;68.73;100208.81;5076516;27;45529;-77
2022/12/11 10:27:32;;;;;;;;;38.75;37.00;;;;;1.31;68.64;100208.78;5070464;27;45529;-74
2022/12/11 10:30:21;;;;;;;;;45.25;41.00;;;;;1.36;69.30;100194.94;5055725;28;45281;-74
2022/12/11 10:32:58;;;;;;;;;34.00;34.00;;;;;1.31;68.85;100208.78;5056410;28;45308;-73
2022/12/11 10:35:45;;;;;;;;;52.25;42.25;;;;;1.25;68.16;100195.88;5070608;27;45579;-75
2022/12/11 10:38:26;;;;;;;;;43.00;39.25;;;;;1.19;68.38;100182.97;5079058;27;46029;-77
2022/12/11 10:40:56;;;;;;;;;43.75;40.25;;;;;1.20;68.38;100191.59;5071758;28;45267;-76
2022/12/11 10:43:50;;;;;;;;;42.75;38.25;;;;;1.19;68.80;100189.88;5084383;27;45310;-77
2022/12/11 10:46:22;;;;;;;;;48.00;40.00;;;;;1.14;69.33;100175.22;5080219;27;45269;-78
2022/12/11 10:48:56;;;;;;;;;42.75;38.50;;;;;1.20;69.60;100178.63;5076653;27;45407;-76
2022/12/11 10:51:31;;;;;;;;;39.00;38.00;;;;;1.23;69.43;100181.19;5076175;28;45257;-78
2022/12/11 10:54:16;;;;;;;;;44.75;41.25;;;;;1.20;69.35;100178.63;5080663;27;45365;-77
2022/12/11 10:56:46;;;;;;;;;41.50;39.25;;;;;1.20;69.30;100178.63;5078315;27;45533;-77
2022/12/11 10:59:23;;;;;;;;;43.75;39.00;;;;;1.21;68.90;100188.13;5082598;27;46358;-77
2022/12/11 11:01:49;;;;;;;;;39.50;36.75;;;;;1.12;68.39;100163.16;5084510;27;45302;-78
2022/12/11 11:04:22;;;;;;;;;49.25;42.25;;;;;0.94;68.01;100136.50;5098162;27;45294;-77
2022/12/11 11:06:48;;;;;;;;;47.75;40.25;;;;;1.12;68.88;100148.47;5105744;27;45544;-79
2022/12/11 11:09:40;;;;;;;;;37.50;37.00;;;;;1.27;68.03;100169.94;5095413;27;45721;-77
2022/12/11 11:12:16;;;;;;;;;39.75;37.00;;;;;1.27;68.41;100164.75;5075884;27;45390;-76
2022/12/11 11:14:42;;;;;;;;;40.00;38.25;;;;;1.26;67.44;100153.53;5079706;27;45649;-77
2022/12/11 11:17:25;;;;;;;;;42.00;38.00;;;;;1.34;68.31;100162.97;5078469;27;45746;-76
2022/12/11 11:19:54;;;;;;;;;40.75;38.75;;;;;1.37;67.82;100148.25;5078285;27;46201;-77
2022/12/11 11:22:41;;;;;;;;;44.00;39.75;;;;;1.43;68.50;100153.38;5088633;27;45588;-76
2022/12/11 11:25:25;;;;;;;;;47.75;41.25;;;;;1.54;68.07;100150.69;5072992;27;45304;-77
2022/12/11 11:27:58;;;;;;;;;37.75;36.00;;;;;1.56;68.13;100133.38;5059349;28;45288;-75
2022/12/11 11:30:32;;;;;;;;;39.25;37.75;;;;;1.75;67.49;100151.34;5080271;27;45260;-75
2022/12/11 11:33:03;;;;;;;;;54.25;46.25;;;;;1.82;67.47;100150.38;5082521;27;45466;-75
2022/12/11 11:35:31;;;;;;;;;47.50;41.00;;;;;1.77;67.29;100135.78;5094986;27;47046;-78
2022/12/11 11:38:02;;;;;;;;;40.75;38.25;;;;;1.81;67.16;100142.66;5079271;27;45496;-79